Main page
METAR-TAF:

METAR-TAF

Airports :

Guelmim Airport

Guelmim, Morocco

latitude: 29-01-00N, longitude: 10-04-04W, elevation: 301 m

Current weather observation

The report was made 27 minutes ago, at 09:00 UTC
Wind 10 kt from the West
Temperature 17°C
Humidity 72%
Pressure 1015 hPa
Visibility: 5000 m
Scattered clouds at a height of 1600 ft

METAR: GMAG 220900Z 26010KT 5000 SCT016 17/12 Q1015 NOSIG

Time: 10:27 (09:27 UTC)

Forecast

The report was made 2 hours and 57 minutes ago, at 06:30 UTC
Forecast valid from 22 at 06 UTC to 23 at 12 UTC
Wind 7 kt from the West/Southwest
Visibility: 4000 m
Scattered clouds at a height of 1000 ft
mist
Becoming
from 22 at 08 UTC to 22 at 10 UTC
Visibility: 8000 m

TAF: GMAG 220630Z 2206/2312 25007KT 4000 BR SCT010 BECMG 2208/2210 8000 NSW NSC

Weather observations and forecasts of more than 4000 airports (METAR and TAF reports).

The available stations are represented by yellow and red dots on the map.

Hover mouse over dot to see the name of the station.

Then click to see weather observations and forecasts.

To change the map : click on the green buttons with a black cross to zoom in, on the green button with a dash to zoom out, or on the green arrows for adjacent maps.


METAR-TAF: